LNR45TV EGGP-EGJJ
Flight info
| Callsign | LNR45TV |
|---|---|
| Flight time | 0h 58m |
| Altitude | 35000 |
| Route | NANTI L8 STAFA P18 TELBA L151 KIDLI UN859 CPT Y321 PEPIS/N0423F340 Q41 SAM N63 LELNA |
| Aircraft | A320/M-SDE3FGHIRWY/LB1 |
Departure
| Time | 2026-05-04 17:36 |
|---|---|
| Airport | Liverpool John Lennon Airport (EGGP) |
Arrival
| Time | 2026-05-04 18:34 |
|---|---|
| Airport | Jersey Airport (EGJJ) |
| Time | Latitude | Longitude | Altitude | Speed | Heading |
|---|---|---|---|---|---|
| 2026-05-04 17:10 | 53.33674 | -2.85199 | 90 ft | 0 kts | 266° |
| 2026-05-04 17:26 | 53.33675 | -2.85173 | 89 ft | 4 kts | 266° |
| 2026-05-04 17:26 | 53.33687 | -2.85057 | 89 ft | 3 kts | 220° |
| 2026-05-04 17:27 | 53.33644 | -2.85072 | 85 ft | 4 kts | 177° |
| 2026-05-04 17:27 | 53.33635 | -2.85071 | 87 ft | 0 kts | 175° |
| 2026-05-04 17:29 | 53.33532 | -2.85033 | 87 ft | 10 kts | 126° |
| 2026-05-04 17:30 | 53.33560 | -2.84359 | 73 ft | 20 kts | 89° |
| 2026-05-04 17:31 | 53.33578 | -2.83928 | 77 ft | 18 kts | 85° |
| 2026-05-04 17:31 | 53.33595 | -2.83503 | 87 ft | 7 kts | 83° |
| 2026-05-04 17:32 | 53.33566 | -2.83324 | 92 ft | 8 kts | 141° |
| 2026-05-04 17:33 | 53.33542 | -2.83306 | 89 ft | 0 kts | 169° |
| 2026-05-04 17:34 | 53.33541 | -2.83305 | 88 ft | 0 kts | 169° |
| 2026-05-04 17:35 | 53.33532 | -2.83303 | 88 ft | 7 kts | 169° |
| 2026-05-04 17:35 | 53.33427 | -2.83590 | 69 ft | 40 kts | 266° |
| 2026-05-04 17:35 | 53.33388 | -2.84479 | 78 ft | 110 kts | 265° |
| 2026-05-04 17:36 | 53.33319 | -2.86053 | 212 ft | 150 kts | 268° |
| 2026-05-04 17:36 | 53.33235 | -2.87849 | 758 ft | 160 kts | 268° |
| 2026-05-04 17:36 | 53.33138 | -2.89707 | 1453 ft | 164 kts | 269° |
| 2026-05-04 17:36 | 53.32996 | -2.91736 | 1835 ft | 188 kts | 257° |
| 2026-05-04 17:37 | 53.32320 | -2.93744 | 2211 ft | 214 kts | 228° |
| 2026-05-04 17:37 | 53.30997 | -2.95160 | 2565 ft | 243 kts | 197° |
| 2026-05-04 17:37 | 53.29254 | -2.95185 | 3179 ft | 263 kts | 164° |
| 2026-05-04 17:37 | 53.27676 | -2.93490 | 3848 ft | 274 kts | 131° |
| 2026-05-04 17:38 | 53.26835 | -2.90713 | 4026 ft | 270 kts | 104° |
| 2026-05-04 17:38 | 53.26439 | -2.87651 | 4029 ft | 268 kts | 101° |
| 2026-05-04 17:38 | 53.25930 | -2.84671 | 4035 ft | 268 kts | 111° |
| 2026-05-04 17:38 | 53.25086 | -2.81891 | 4016 ft | 268 kts | 122° |
| 2026-05-04 17:39 | 53.22939 | -2.78163 | 4671 ft | 273 kts | 152° |
| 2026-05-04 17:39 | 53.21226 | -2.76697 | 5769 ft | 273 kts | 153° |
| 2026-05-04 17:39 | 53.19522 | -2.75260 | 6724 ft | 276 kts | 154° |
| 2026-05-04 17:40 | 53.17791 | -2.73812 | 7589 ft | 281 kts | 154° |
| 2026-05-04 17:40 | 53.16005 | -2.72328 | 8471 ft | 286 kts | 154° |
| 2026-05-04 17:40 | 53.14234 | -2.70860 | 9332 ft | 290 kts | 155° |
| 2026-05-04 17:40 | 53.12408 | -2.69348 | 10168 ft | 295 kts | 155° |
| 2026-05-04 17:41 | 53.10505 | -2.67777 | 10548 ft | 318 kts | 155° |
| 2026-05-04 17:41 | 53.08471 | -2.66103 | 11026 ft | 332 kts | 155° |
| 2026-05-04 17:41 | 53.06381 | -2.64382 | 11766 ft | 337 kts | 155° |
| 2026-05-04 17:41 | 53.04265 | -2.62642 | 12593 ft | 340 kts | 154° |
| 2026-05-04 17:42 | 53.02138 | -2.60892 | 13395 ft | 343 kts | 155° |
| 2026-05-04 17:42 | 52.99987 | -2.59123 | 14149 ft | 347 kts | 154° |
| 2026-05-04 17:42 | 52.97819 | -2.57343 | 14848 ft | 350 kts | 154° |
| 2026-05-04 17:42 | 52.95633 | -2.55553 | 15585 ft | 351 kts | 155° |
| 2026-05-04 17:43 | 52.93429 | -2.53748 | 16303 ft | 353 kts | 154° |
| 2026-05-04 17:43 | 52.91214 | -2.51940 | 16970 ft | 357 kts | 155° |
| 2026-05-04 17:43 | 52.88969 | -2.50114 | 17637 ft | 361 kts | 155° |
| 2026-05-04 17:43 | 52.86705 | -2.48275 | 18313 ft | 364 kts | 155° |
| 2026-05-04 17:44 | 52.84425 | -2.46420 | 18836 ft | 367 kts | 155° |
| 2026-05-04 17:44 | 52.82125 | -2.44548 | 19007 ft | 368 kts | 155° |
| 2026-05-04 17:44 | 52.79825 | -2.42679 | 19057 ft | 368 kts | 155° |
| 2026-05-04 17:44 | 52.77535 | -2.40825 | 19057 ft | 367 kts | 155° |
| 2026-05-04 17:45 | 52.75236 | -2.38966 | 19059 ft | 367 kts | 155° |
| 2026-05-04 17:45 | 52.72942 | -2.37114 | 19055 ft | 366 kts | 155° |
| 2026-05-04 17:45 | 52.70653 | -2.35268 | 19057 ft | 365 kts | 155° |
| 2026-05-04 17:45 | 52.68365 | -2.33419 | 19056 ft | 365 kts | 155° |
| 2026-05-04 17:46 | 52.66111 | -2.31489 | 19057 ft | 366 kts | 149° |
| 2026-05-04 17:46 | 52.63988 | -2.29182 | 19054 ft | 366 kts | 147° |
| 2026-05-04 17:46 | 52.61865 | -2.26852 | 19055 ft | 366 kts | 147° |
| 2026-05-04 17:46 | 52.59746 | -2.24528 | 19055 ft | 366 kts | 147° |
| 2026-05-04 17:47 | 52.57626 | -2.22209 | 19051 ft | 366 kts | 147° |
| 2026-05-04 17:47 | 52.55504 | -2.19889 | 19051 ft | 366 kts | 147° |
| 2026-05-04 17:47 | 52.53381 | -2.17570 | 19059 ft | 366 kts | 147° |
| 2026-05-04 17:47 | 52.51255 | -2.15254 | 19060 ft | 366 kts | 148° |
| 2026-05-04 17:48 | 52.49136 | -2.12947 | 19057 ft | 365 kts | 148° |
| 2026-05-04 17:48 | 52.47010 | -2.10635 | 19348 ft | 368 kts | 148° |
| 2026-05-04 17:48 | 52.45595 | -2.09098 | 19781 ft | 369 kts | 148° |
| 2026-05-04 17:48 | 52.42715 | -2.05977 | 20603 ft | 373 kts | 148° |
| 2026-05-04 17:49 | 52.40569 | -2.03651 | 21185 ft | 376 kts | 149° |
| 2026-05-04 17:49 | 52.38382 | -2.01284 | 21765 ft | 379 kts | 149° |
| 2026-05-04 17:49 | 52.36172 | -1.98897 | 22360 ft | 382 kts | 149° |
| 2026-05-04 17:49 | 52.33944 | -1.96494 | 22891 ft | 386 kts | 150° |
| 2026-05-04 17:50 | 52.31690 | -1.94066 | 23438 ft | 390 kts | 150° |
| 2026-05-04 17:50 | 52.29414 | -1.91617 | 23932 ft | 393 kts | 150° |
| 2026-05-04 17:50 | 52.27121 | -1.89147 | 24379 ft | 396 kts | 150° |
| 2026-05-04 17:50 | 52.24821 | -1.86671 | 24891 ft | 397 kts | 150° |
| 2026-05-04 17:51 | 52.22510 | -1.84184 | 25366 ft | 399 kts | 150° |
| 2026-05-04 17:51 | 52.20188 | -1.81696 | 25807 ft | 401 kts | 149° |
| 2026-05-04 17:51 | 52.17845 | -1.79193 | 26237 ft | 404 kts | 149° |
| 2026-05-04 17:51 | 52.15487 | -1.76679 | 26648 ft | 406 kts | 149° |
| 2026-05-04 17:52 | 52.13115 | -1.74153 | 27059 ft | 408 kts | 149° |
| 2026-05-04 17:52 | 52.10730 | -1.71616 | 27455 ft | 411 kts | 149° |
| 2026-05-04 17:52 | 52.08323 | -1.69057 | 27841 ft | 414 kts | 149° |
| 2026-05-04 17:52 | 52.05916 | -1.66494 | 28225 ft | 416 kts | 148° |
| 2026-05-04 17:53 | 52.03487 | -1.63901 | 28609 ft | 418 kts | 148° |
| 2026-05-04 17:53 | 52.01047 | -1.61297 | 29011 ft | 420 kts | 148° |
| 2026-05-04 17:53 | 51.98598 | -1.58693 | 29385 ft | 422 kts | 148° |
| 2026-05-04 17:53 | 51.96134 | -1.56083 | 29759 ft | 424 kts | 148° |
| 2026-05-04 17:54 | 51.93657 | -1.53469 | 30096 ft | 426 kts | 148° |
| 2026-05-04 17:54 | 51.91195 | -1.50880 | 30385 ft | 428 kts | 148° |
| 2026-05-04 17:54 | 51.88659 | -1.48213 | 30679 ft | 430 kts | 148° |
| 2026-05-04 17:54 | 51.86143 | -1.45573 | 30956 ft | 432 kts | 149° |
| 2026-05-04 17:55 | 51.83613 | -1.42929 | 31240 ft | 433 kts | 149° |
| 2026-05-04 17:55 | 51.81075 | -1.40283 | 31514 ft | 435 kts | 149° |
| 2026-05-04 17:55 | 51.78526 | -1.37654 | 31868 ft | 433 kts | 152° |
| 2026-05-04 17:55 | 51.75838 | -1.35543 | 32332 ft | 427 kts | 160° |
| 2026-05-04 17:56 | 51.73027 | -1.34044 | 32730 ft | 425 kts | 163° |
| 2026-05-04 17:56 | 51.70208 | -1.32618 | 33106 ft | 424 kts | 163° |
| 2026-05-04 17:56 | 51.67390 | -1.31191 | 33477 ft | 424 kts | 163° |
| 2026-05-04 17:56 | 51.64583 | -1.29768 | 33844 ft | 423 kts | 163° |
| 2026-05-04 17:57 | 51.61779 | -1.28344 | 34172 ft | 423 kts | 163° |
| 2026-05-04 17:57 | 51.58973 | -1.26921 | 34447 ft | 423 kts | 163° |
| 2026-05-04 17:57 | 51.56165 | -1.25504 | 34696 ft | 423 kts | 163° |
| 2026-05-04 17:57 | 51.53353 | -1.24084 | 34935 ft | 424 kts | 163° |
| 2026-05-04 17:58 | 51.47639 | -1.22238 | 35024 ft | 415 kts | 178° |
| 2026-05-04 17:58 | 51.41891 | -1.22550 | 35021 ft | 412 kts | 183° |
| 2026-05-04 17:59 | 51.36195 | -1.23014 | 35019 ft | 412 kts | 183° |
| 2026-05-04 18:00 | 51.27621 | -1.23731 | 35003 ft | 409 kts | 182° |
| 2026-05-04 18:00 | 51.21934 | -1.24194 | 35005 ft | 409 kts | 182° |
| 2026-05-04 18:01 | 51.16348 | -1.25764 | 35008 ft | 409 kts | 194° |
| 2026-05-04 18:01 | 51.10841 | -1.28103 | 35015 ft | 409 kts | 194° |
| 2026-05-04 18:02 | 51.02570 | -1.31559 | 35005 ft | 410 kts | 194° |
| 2026-05-04 18:02 | 50.97058 | -1.33868 | 35001 ft | 410 kts | 195° |
| 2026-05-04 18:03 | 50.91825 | -1.37464 | 35008 ft | 411 kts | 206° |
| 2026-05-04 18:03 | 50.86754 | -1.41525 | 35012 ft | 411 kts | 205° |
| 2026-05-04 18:04 | 50.81635 | -1.45599 | 34995 ft | 412 kts | 205° |
| 2026-05-04 18:05 | 50.73938 | -1.51708 | 34997 ft | 413 kts | 205° |
| 2026-05-04 18:05 | 50.71363 | -1.53748 | 34888 ft | 414 kts | 205° |
| 2026-05-04 18:05 | 50.68803 | -1.55774 | 34652 ft | 410 kts | 205° |
| 2026-05-04 18:05 | 50.66260 | -1.57784 | 34411 ft | 407 kts | 205° |
| 2026-05-04 18:06 | 50.61223 | -1.61759 | 33941 ft | 403 kts | 205° |
| 2026-05-04 18:06 | 50.58728 | -1.63722 | 33662 ft | 400 kts | 204° |
| 2026-05-04 18:06 | 50.56247 | -1.65672 | 33380 ft | 396 kts | 204° |
| 2026-05-04 18:07 | 50.53797 | -1.67602 | 32939 ft | 391 kts | 204° |
| 2026-05-04 18:07 | 50.51379 | -1.69505 | 32471 ft | 387 kts | 204° |
| 2026-05-04 18:07 | 50.48978 | -1.71388 | 31996 ft | 383 kts | 204° |
| 2026-05-04 18:07 | 50.46605 | -1.73245 | 31547 ft | 379 kts | 204° |
| 2026-05-04 18:08 | 50.44256 | -1.75081 | 31100 ft | 375 kts | 204° |
| 2026-05-04 18:08 | 50.41932 | -1.76895 | 30666 ft | 372 kts | 204° |
| 2026-05-04 18:08 | 50.39655 | -1.78670 | 30246 ft | 368 kts | 204° |
| 2026-05-04 18:08 | 50.37372 | -1.80449 | 29779 ft | 365 kts | 203° |
| 2026-05-04 18:09 | 50.32898 | -1.83935 | 28970 ft | 354 kts | 203° |
| 2026-05-04 18:09 | 50.28538 | -1.87324 | 28197 ft | 345 kts | 203° |
| 2026-05-04 18:10 | 50.26402 | -1.88976 | 27828 ft | 340 kts | 203° |
| 2026-05-04 18:10 | 50.24295 | -1.90604 | 27441 ft | 336 kts | 203° |
| 2026-05-04 18:10 | 50.22216 | -1.92215 | 27063 ft | 331 kts | 203° |
| 2026-05-04 18:10 | 50.20161 | -1.93808 | 26683 ft | 327 kts | 203° |
| 2026-05-04 18:11 | 50.18133 | -1.95374 | 26299 ft | 324 kts | 203° |
| 2026-05-04 18:11 | 50.16123 | -1.96923 | 25917 ft | 320 kts | 203° |
| 2026-05-04 18:11 | 50.14132 | -1.98456 | 25522 ft | 319 kts | 203° |
| 2026-05-04 18:11 | 50.12144 | -1.99986 | 25129 ft | 317 kts | 203° |
| 2026-05-04 18:12 | 50.10167 | -2.01506 | 24728 ft | 317 kts | 203° |
| 2026-05-04 18:12 | 50.08194 | -2.03023 | 24321 ft | 316 kts | 203° |
| 2026-05-04 18:12 | 50.06208 | -2.04545 | 23913 ft | 328 kts | 203° |
| 2026-05-04 18:12 | 50.04117 | -2.06140 | 23458 ft | 332 kts | 203° |
| 2026-05-04 18:13 | 50.02069 | -2.07704 | 23001 ft | 332 kts | 203° |
| 2026-05-04 18:13 | 50.00001 | -2.09292 | 22557 ft | 331 kts | 204° |
| 2026-05-04 18:13 | 49.95690 | -2.11542 | 21708 ft | 326 kts | 190° |
| 2026-05-04 18:14 | 49.93478 | -2.12293 | 21296 ft | 325 kts | 190° |
| 2026-05-04 18:14 | 49.91272 | -2.13038 | 20896 ft | 324 kts | 191° |
| 2026-05-04 18:14 | 49.89072 | -2.13784 | 20482 ft | 323 kts | 191° |
| 2026-05-04 18:15 | 49.84687 | -2.15284 | 19665 ft | 322 kts | 191° |
| 2026-05-04 18:15 | 49.80313 | -2.16776 | 18856 ft | 321 kts | 191° |
| 2026-05-04 18:15 | 49.78129 | -2.17518 | 18455 ft | 321 kts | 191° |
| 2026-05-04 18:16 | 49.75944 | -2.18260 | 18016 ft | 321 kts | 191° |
| 2026-05-04 18:16 | 49.73765 | -2.18998 | 17605 ft | 320 kts | 191° |
| 2026-05-04 18:16 | 49.71593 | -2.19738 | 17248 ft | 317 kts | 191° |
| 2026-05-04 18:17 | 49.67346 | -2.21422 | 16565 ft | 312 kts | 195° |
| 2026-05-04 18:17 | 49.65263 | -2.22376 | 16060 ft | 312 kts | 195° |
| 2026-05-04 18:17 | 49.61188 | -2.24271 | 15261 ft | 303 kts | 195° |
| 2026-05-04 18:18 | 49.59200 | -2.25181 | 14901 ft | 299 kts | 194° |
| 2026-05-04 18:18 | 49.57192 | -2.26086 | 14534 ft | 296 kts | 194° |
| 2026-05-04 18:18 | 49.55247 | -2.26954 | 14162 ft | 294 kts | 194° |
| 2026-05-04 18:18 | 49.53282 | -2.27827 | 13797 ft | 294 kts | 194° |
| 2026-05-04 18:19 | 49.49358 | -2.29565 | 13013 ft | 292 kts | 194° |
| 2026-05-04 18:19 | 49.47404 | -2.30431 | 12642 ft | 291 kts | 194° |
| 2026-05-04 18:19 | 49.45459 | -2.31294 | 12272 ft | 290 kts | 194° |
| 2026-05-04 18:20 | 49.43524 | -2.32153 | 11890 ft | 289 kts | 194° |
| 2026-05-04 18:20 | 49.41593 | -2.33009 | 11515 ft | 288 kts | 194° |
| 2026-05-04 18:20 | 49.39664 | -2.33864 | 11147 ft | 288 kts | 194° |
| 2026-05-04 18:20 | 49.37746 | -2.34711 | 10771 ft | 287 kts | 194° |
| 2026-05-04 18:21 | 49.35824 | -2.35554 | 10420 ft | 285 kts | 194° |
| 2026-05-04 18:21 | 49.33935 | -2.36384 | 10057 ft | 284 kts | 194° |
| 2026-05-04 18:21 | 49.32045 | -2.37217 | 9702 ft | 281 kts | 194° |
| 2026-05-04 18:21 | 49.30153 | -2.38047 | 9195 ft | 284 kts | 195° |
| 2026-05-04 18:22 | 49.28255 | -2.38876 | 8780 ft | 282 kts | 195° |
| 2026-05-04 18:22 | 49.26374 | -2.39700 | 8366 ft | 281 kts | 195° |
| 2026-05-04 18:22 | 49.24501 | -2.40523 | 7949 ft | 278 kts | 195° |
| 2026-05-04 18:22 | 49.23279 | -2.40992 | 7673 ft | 269 kts | 187° |
| 2026-05-04 18:23 | 49.21492 | -2.40674 | 7271 ft | 254 kts | 155° |
| 2026-05-04 18:23 | 49.20151 | -2.39079 | 6889 ft | 242 kts | 124° |
| 2026-05-04 18:23 | 49.19545 | -2.36758 | 6478 ft | 236 kts | 95° |
| 2026-05-04 18:23 | 49.19637 | -2.34276 | 6053 ft | 238 kts | 83° |
| 2026-05-04 18:24 | 49.19838 | -2.31723 | 5619 ft | 240 kts | 82° |
| 2026-05-04 18:24 | 49.20037 | -2.29182 | 5193 ft | 241 kts | 82° |
| 2026-05-04 18:24 | 49.20235 | -2.26625 | 4764 ft | 243 kts | 82° |
| 2026-05-04 18:24 | 49.20434 | -2.24046 | 4311 ft | 245 kts | 82° |
| 2026-05-04 18:25 | 49.20605 | -2.21449 | 3906 ft | 244 kts | 90° |
| 2026-05-04 18:25 | 49.20245 | -2.19031 | 3950 ft | 226 kts | 114° |
| 2026-05-04 18:25 | 49.19298 | -2.17196 | 3966 ft | 221 kts | 140° |
| 2026-05-04 18:25 | 49.17920 | -2.16169 | 3886 ft | 224 kts | 167° |
| 2026-05-04 18:26 | 49.16375 | -2.16180 | 3805 ft | 226 kts | 194° |
| 2026-05-04 18:26 | 49.14977 | -2.17236 | 3727 ft | 225 kts | 221° |
| 2026-05-04 18:26 | 49.14030 | -2.19108 | 3604 ft | 223 kts | 249° |
| 2026-05-04 18:26 | 49.13649 | -2.21384 | 3510 ft | 221 kts | 262° |
| 2026-05-04 18:27 | 49.13434 | -2.23694 | 3417 ft | 220 kts | 264° |
| 2026-05-04 18:27 | 49.13253 | -2.26004 | 3309 ft | 219 kts | 264° |
| 2026-05-04 18:27 | 49.13075 | -2.28276 | 3204 ft | 211 kts | 264° |
| 2026-05-04 18:27 | 49.12893 | -2.30456 | 3095 ft | 203 kts | 264° |
| 2026-05-04 18:28 | 49.12719 | -2.32564 | 2993 ft | 198 kts | 264° |
| 2026-05-04 18:28 | 49.12547 | -2.34659 | 2992 ft | 199 kts | 264° |
| 2026-05-04 18:28 | 49.12373 | -2.36752 | 2992 ft | 199 kts | 264° |
| 2026-05-04 18:28 | 49.12195 | -2.38853 | 2986 ft | 200 kts | 263° |
| 2026-05-04 18:29 | 49.12016 | -2.40954 | 2992 ft | 200 kts | 265° |
| 2026-05-04 18:29 | 49.12167 | -2.43022 | 2897 ft | 196 kts | 295° |
| 2026-05-04 18:29 | 49.12969 | -2.44654 | 2824 ft | 192 kts | 327° |
| 2026-05-04 18:29 | 49.14178 | -2.45418 | 2783 ft | 189 kts | 356° |
| 2026-05-04 18:30 | 49.16480 | -2.43969 | 2699 ft | 187 kts | 54° |
| 2026-05-04 18:30 | 49.17076 | -2.42238 | 2661 ft | 188 kts | 65° |
| 2026-05-04 18:30 | 49.17620 | -2.40430 | 2562 ft | 186 kts | 65° |
| 2026-05-04 18:31 | 49.18164 | -2.38636 | 2419 ft | 186 kts | 65° |
| 2026-05-04 18:31 | 49.18711 | -2.36839 | 2258 ft | 186 kts | 64° |
| 2026-05-04 18:31 | 49.19253 | -2.35056 | 2110 ft | 185 kts | 65° |
| 2026-05-04 18:31 | 49.19657 | -2.33214 | 2007 ft | 185 kts | 82° |
| 2026-05-04 18:32 | 49.19813 | -2.31247 | 1756 ft | 184 kts | 81° |
| 2026-05-04 18:32 | 49.19972 | -2.29345 | 1462 ft | 175 kts | 81° |
| 2026-05-04 18:32 | 49.20118 | -2.27612 | 1288 ft | 152 kts | 80° |
| 2026-05-04 18:32 | 49.20246 | -2.26079 | 1056 ft | 139 kts | 80° |
| 2026-05-04 18:33 | 49.20363 | -2.24644 | 841 ft | 134 kts | 78° |
| 2026-05-04 18:33 | 49.20482 | -2.23245 | 692 ft | 132 kts | 79° |
| 2026-05-04 18:33 | 49.20601 | -2.21849 | 479 ft | 133 kts | 79° |
| 2026-05-04 18:33 | 49.20722 | -2.20444 | 309 ft | 133 kts | 79° |
| 2026-05-04 18:34 | 49.20826 | -2.19254 | 286 ft | 76 kts | 83° |
| 2026-05-04 18:34 | 49.20867 | -2.18751 | 283 ft | 40 kts | 82° |
| 2026-05-04 18:34 | 49.20877 | -2.18430 | 286 ft | 20 kts | 115° |
| 2026-05-04 18:34 | 49.20796 | -2.18389 | 287 ft | 11 kts | 201° |
| 2026-05-04 18:35 | 49.20772 | -2.18416 | 284 ft | 2 kts | 219° |
| 2026-05-04 18:35 | 49.20755 | -2.18439 | 284 ft | 6 kts | 225° |
| 2026-05-04 18:35 | 49.20731 | -2.18533 | 286 ft | 15 kts | 263° |
| 2026-05-04 18:35 | 49.20717 | -2.18716 | 284 ft | 18 kts | 263° |
| 2026-05-04 18:36 | 49.20701 | -2.18907 | 284 ft | 18 kts | 263° |
| 2026-05-04 18:36 | 49.20685 | -2.19102 | 284 ft | 19 kts | 263° |
| 2026-05-04 18:36 | 49.20698 | -2.19305 | 284 ft | 20 kts | 285° |
| 2026-05-04 18:36 | 49.20700 | -2.19525 | 284 ft | 22 kts | 259° |
| 2026-05-04 18:37 | 49.20659 | -2.19652 | 284 ft | 8 kts | 215° |
| 2026-05-04 18:37 | 49.20623 | -2.19702 | 284 ft | 6 kts | 241° |
| 2026-05-04 18:37 | 49.20591 | -2.19760 | 284 ft | 8 kts | 187° |
| 2026-05-04 18:37 | 49.20568 | -2.19756 | 284 ft | 1 kts | 171° |
| 2026-05-04 18:38 | 49.20565 | -2.19755 | 284 ft | 1 kts | 171° |
| 2026-05-04 18:38 | 49.20560 | -2.19754 | 284 ft | 1 kts | 172° |
| 2026-05-04 18:38 | 49.20554 | -2.19753 | 284 ft | 0 kts | 172° |